Time;durP1;ratioP1;P1;durP2;ratioP2;P2;SDS_P1;SDS_P2;PMS_P1;PMS_P2;Temp;Humidity;BMP_temperature;BMP_pressure;BME280_temperature;BME280_humidity;BME280_pressure;Samples;Min_cycle;Max_cycle;Signal;HPM_P1;HPM_P2
2022/03/11 00:00:05;;;;;;;18.10;11.43;;;-0.10;68.80;;;-0.49;51.80;95669.31;4974051;28;20455;-56
2022/03/11 00:02:35;;;;;;;21.17;12.53;;;-0.10;69.10;;;-0.49;51.62;95671.06;4977510;28;20483;-56
2022/03/11 00:05:02;;;;;;;23.10;11.47;;;-0.10;69.10;;;-0.50;51.57;95677.97;4974588;28;20463;-56
2022/03/11 00:07:30;;;;;;;20.00;12.07;;;-0.10;69.40;;;-0.50;52.07;95677.13;4982842;28;20835;-60
2022/03/11 00:09:58;;;;;;;24.20;14.40;;;-0.10;70.70;;;-0.51;51.86;95676.28;4980408;28;20456;-55
2022/03/11 00:12:25;;;;;;;23.80;14.33;;;-0.10;69.50;;;-0.54;52.21;95666.06;4974769;28;20555;-57
2022/03/11 00:14:53;;;;;;;26.47;14.70;;;-0.10;69.60;;;-0.56;52.02;95667.84;4979751;28;20723;-56
2022/03/11 00:17:22;;;;;;;27.13;14.40;;;-0.10;70.00;;;-0.58;52.29;95664.47;4979853;28;20577;-56
2022/03/11 00:19:50;;;;;;;24.80;13.93;;;-0.10;70.10;;;-0.58;52.63;95664.47;4977402;28;20463;-60
2022/03/11 00:22:17;;;;;;;34.83;15.30;;;-0.20;70.40;;;-0.61;52.11;95655.06;4973913;28;20471;-68
2022/03/11 00:24:46;;;;;;;37.00;16.13;;;-0.20;70.10;;;-0.63;52.46;95662.03;4982800;28;20490;-60
2022/03/11 00:27:13;;;;;;;33.27;15.63;;;-0.20;70.40;;;-0.64;52.34;95656.94;4979840;28;20479;-58
2022/03/11 00:29:40;;;;;;;27.50;14.30;;;-0.20;70.50;;;-0.65;52.52;95657.81;4982134;28;20463;-57
2022/03/11 00:32:08;;;;;;;23.37;12.93;;;-0.20;70.90;;;-0.67;52.21;95660.44;4974311;28;20459;-57
2022/03/11 00:34:37;;;;;;;29.70;13.17;;;-0.20;70.50;;;-0.68;52.16;95652.75;4975494;28;20984;-57
2022/03/11 00:37:04;;;;;;;26.63;13.50;;;-0.20;70.90;;;-0.70;52.41;95645.06;4980362;28;20513;-59
2022/03/11 00:39:32;;;;;;;27.40;13.97;;;-0.30;70.90;;;-0.69;52.97;95651.09;4984167;28;20545;-55
2022/03/11 00:41:59;;;;;;;24.73;13.83;;;-0.20;70.90;;;-0.72;52.93;95647.69;4972837;28;20999;-57
2022/03/11 00:44:26;;;;;;;24.83;12.87;;;-0.20;71.10;;;-0.72;53.01;95647.69;4977483;28;20967;-59
2022/03/11 00:46:54;;;;;;;24.63;14.50;;;-0.30;71.60;;;-0.73;53.39;95651.19;4980593;28;20507;-57
2022/03/11 00:49:21;;;;;;;32.73;14.50;;;-0.30;72.00;;;-0.75;52.89;95645.22;4984779;28;20462;-54
2022/03/11 00:51:50;;;;;;;27.90;14.17;;;-0.30;72.00;;;-0.76;53.03;95643.56;4976627;28;20980;-58
2022/03/11 00:54:17;;;;;;;30.97;15.73;;;-0.30;72.20;;;-0.76;53.17;95645.25;4978410;28;20936;-55
2022/03/11 00:56:44;;;;;;;33.40;18.63;;;-0.30;72.00;;;-0.78;53.06;95644.50;4978798;28;20521;-59
2022/03/11 00:59:11;;;;;;;39.70;19.27;;;-0.30;72.30;;;-0.80;53.22;95643.72;4983496;28;21042;-56
2022/03/11 01:01:39;;;;;;;38.47;20.40;;;-0.40;72.20;;;-0.81;53.07;95644.59;4978962;28;20483;-58
2022/03/11 01:04:06;;;;;;;44.87;24.07;;;-0.40;72.30;;;-0.83;52.96;95642.06;4976372;28;20466;-59
2022/03/11 01:06:34;;;;;;;43.87;25.10;;;-0.40;72.30;;;-0.86;53.17;95644.75;4979203;28;20458;-56
2022/03/11 01:09:04;;;;;;;42.33;24.40;;;-0.40;72.60;;;-0.88;53.14;95643.97;4983597;28;20606;-55
2022/03/11 01:11:31;;;;;;;33.07;21.07;;;-0.40;72.70;;;-0.88;52.99;95645.69;4982457;28;20455;-59
2022/03/11 01:13:59;;;;;;;33.90;18.57;;;-0.40;72.70;;;-0.89;53.22;95639.69;4972929;28;20478;-59
2022/03/11 01:16:27;;;;;;;34.30;19.93;;;-0.40;72.30;;;-0.89;52.96;95650.00;4978643;28;20598;-56
2022/03/11 01:18:55;;;;;;;34.53;18.80;;;-0.50;72.10;;;-0.90;52.83;95648.31;4980064;28;20509;-58
2022/03/11 01:21:22;;;;;;;41.03;20.80;;;-0.50;72.10;;;-0.89;53.03;95649.19;4982568;28;20592;-59
2022/03/11 01:23:49;;;;;;;31.27;20.50;;;-0.50;72.60;;;-0.90;53.08;95656.06;4975092;28;20998;-58
2022/03/11 01:26:18;;;;;;;36.13;21.60;;;-0.50;72.30;;;-0.93;53.48;95654.44;4977701;28;20457;-55
2022/03/11 01:28:45;;;;;;;29.73;17.43;;;-0.50;72.70;;;-0.94;53.13;95650.16;4980339;28;20490;-59
2022/03/11 01:31:13;;;;;;;28.50;17.10;;;-0.50;72.70;;;-0.97;53.05;95650.25;4981947;28;20473;-59
2022/03/11 01:33:40;;;;;;;31.37;17.23;;;-0.50;72.40;;;-0.99;53.04;95646.03;4975145;28;20533;-59
2022/03/11 01:36:07;;;;;;;29.90;15.97;;;-0.60;72.60;;;-1.02;53.43;95652.16;4974875;28;20494;-60
2022/03/11 01:38:35;;;;;;;29.40;15.43;;;-0.60;72.60;;;-1.05;53.19;95648.81;4980121;28;20478;-54
2022/03/11 01:41:02;;;;;;;27.63;15.70;;;-0.60;72.60;;;-1.09;53.45;95648.91;4983795;28;20459;-56
2022/03/11 01:43:31;;;;;;;25.97;14.43;;;-0.60;72.90;;;-1.11;53.88;95649.88;4977786;28;20478;-56
2022/03/11 01:45:59;;;;;;;27.07;13.47;;;-0.60;72.60;;;-1.14;53.83;95643.06;4975174;28;20954;-59
2022/03/11 01:48:27;;;;;;;20.50;13.70;;;-0.70;73.10;;;-1.17;53.39;95645.75;4976189;28;20471;-57
2022/03/11 01:50:54;;;;;;;27.83;15.30;;;-0.70;73.40;;;-1.19;53.63;95652.72;4982673;28;20451;-56
2022/03/11 01:53:21;;;;;;;29.10;14.47;;;-0.70;73.70;;;-1.23;53.92;95645.94;4982864;28;20502;-59
2022/03/11 01:55:48;;;;;;;26.90;13.40;;;-0.80;73.40;;;-1.26;53.49;95640.88;4973439;28;20466;-57
2022/03/11 01:58:16;;;;;;;27.33;14.67;;;-0.80;73.50;;;-1.26;54.07;95646.06;4977800;28;20890;-59
2022/03/11 02:00:45;;;;;;;27.10;14.33;;;-0.80;73.60;;;-1.28;54.04;95645.25;4980779;28;20824;-56
2022/03/11 02:03:12;;;;;;;22.97;13.67;;;-0.80;73.90;;;-1.31;53.80;95642.78;4982955;28;20467;-59
2022/03/11 02:05:39;;;;;;;22.27;11.50;;;-0.80;74.00;;;-1.32;53.77;95644.53;4974388;28;20475;-55
2022/03/11 02:08:07;;;;;;;26.00;12.37;;;-0.90;73.80;;;-1.33;54.22;95647.16;4978094;28;20482;-56
2022/03/11 02:10:34;;;;;;;20.30;11.00;;;-0.90;73.80;;;-1.33;53.65;95644.59;4982405;28;20458;-57
2022/03/11 02:13:05;;;;;;;17.10;10.13;;;-0.90;74.00;;;-1.34;54.31;95638.56;4986067;28;20795;-62
2022/03/11 02:15:32;;;;;;;22.43;10.33;;;-0.90;74.20;;;-1.35;54.39;95648.91;4977960;28;20525;-56
2022/03/11 02:18:01;;;;;;;19.40;10.67;;;-0.90;74.40;;;-1.38;54.27;95641.28;4978234;28;20499;-56
2022/03/11 02:20:28;;;;;;;17.97;9.80;;;-0.90;74.20;;;-1.40;53.56;95643.06;4974944;28;21069;-54
2022/03/11 02:22:56;;;;;;;18.17;10.53;;;-0.90;74.00;;;-1.41;54.16;95643.97;4987211;28;20561;-59
2022/03/11 02:25:26;;;;;;;15.60;9.70;;;-1.00;74.10;;;-1.42;54.36;95637.97;4981990;28;20459;-60
2022/03/11 02:27:53;;;;;;;16.67;10.10;;;-0.90;74.40;;;-1.42;53.76;95644.88;4978964;28;20486;-60
2022/03/11 02:30:21;;;;;;;16.67;10.10;;;-1.00;74.20;;;-1.44;53.60;95652.66;4982438;28;20489;-58
2022/03/11 02:32:49;;;;;;;13.53;8.97;;;-1.00;74.30;;;-1.43;54.24;95648.34;4986038;28;20485;-56
2022/03/11 02:35:18;;;;;;;12.77;7.73;;;-1.00;74.00;;;-1.47;53.71;95652.75;4983070;28;20485;-57
2022/03/11 02:37:45;;;;;;;10.20;8.70;;;-1.00;74.10;;;-1.49;54.04;95657.97;4976869;28;20505;-58
2022/03/11 02:40:13;;;;;;;16.50;9.23;;;-1.00;74.00;;;-1.52;53.65;95657.19;4981684;28;20458;-60
2022/03/11 02:42:42;;;;;;;17.43;10.33;;;-1.10;74.00;;;-1.54;53.98;95656.41;4979308;28;20575;-60
2022/03/11 02:45:10;;;;;;;18.13;9.90;;;-1.10;74.30;;;-1.57;53.77;95662.50;4985849;28;20451;-61
2022/03/11 02:47:37;;;;;;;19.27;10.60;;;-1.10;74.30;;;-1.61;54.68;95666.06;4977029;28;20850;-58
2022/03/11 02:50:06;;;;;;;27.00;10.63;;;-1.10;74.70;;;-1.63;53.99;95662.69;4981478;28;20455;-59
2022/03/11 02:52:34;;;;;;;27.50;12.63;;;-1.20;74.70;;;-1.65;53.92;95664.47;4981286;28;20478;-59
2022/03/11 02:55:01;;;;;;;21.93;11.00;;;-1.20;74.60;;;-1.67;54.79;95661.09;4988503;28;20454;-56
2022/03/11 02:57:28;;;;;;;17.97;10.83;;;-1.20;74.80;;;-1.71;54.72;95670.66;4977346;28;20495;-60
2022/03/11 02:59:57;;;;;;;22.50;10.10;;;-1.20;74.70;;;-1.74;54.49;95673.31;4979174;28;20544;-55
2022/03/11 03:02:24;;;;;;;19.47;11.07;;;-1.20;74.70;;;-1.77;53.75;95664.84;4982117;28;20476;-59
2022/03/11 03:04:51;;;;;;;23.83;11.20;;;-1.30;74.60;;;-1.82;54.48;95665.81;4983530;28;20950;-59
2022/03/11 03:07:19;;;;;;;19.07;10.30;;;-1.30;74.50;;;-1.84;54.45;95664.19;4980228;28;21213;-59
2022/03/11 03:09:46;;;;;;;15.60;10.20;;;-1.30;74.30;;;-1.88;54.53;95663.41;4976959;28;20964;-54
2022/03/11 03:12:13;;;;;;;18.50;10.40;;;-1.40;74.50;;;-1.90;54.22;95664.38;4982933;28;20996;-59
2022/03/11 03:14:41;;;;;;;12.90;8.60;;;-1.40;74.60;;;-1.93;53.95;95675.59;4983469;28;20954;-57
2022/03/11 03:17:09;;;;;;;15.63;9.70;;;-1.40;74.70;;;-1.95;54.04;95669.66;4975948;28;20871;-60
2022/03/11 03:19:38;;;;;;;17.30;10.23;;;-1.40;74.90;;;-1.97;53.77;95668.84;4972889;28;20456;-60
2022/03/11 03:22:05;;;;;;;17.30;10.37;;;-1.50;74.80;;;-1.99;54.60;95666.31;4979974;28;20522;-59
2022/03/11 03:24:32;;;;;;;15.30;9.93;;;-1.50;74.80;;;-2.00;54.42;95669.78;4984925;28;20477;-58
2022/03/11 03:27:00;;;;;;;17.30;10.60;;;-1.50;74.90;;;-2.00;54.50;95674.94;4981798;28;21079;-54
2022/03/11 03:29:27;;;;;;;19.00;10.03;;;-1.50;74.80;;;-2.02;54.75;95678.44;4974756;28;20514;-60
2022/03/11 03:31:57;;;;;;;19.50;9.37;;;-1.50;75.40;;;-2.07;55.09;95681.16;4979468;28;20456;-55
2022/03/11 03:34:28;;;;;;;15.47;9.53;;;-1.60;75.20;;;-2.05;54.43;95681.09;4982983;28;20967;-59
2022/03/11 03:36:56;;;;;;;20.70;9.70;;;-1.60;75.10;;;-2.07;54.68;95675.16;4984720;28;20514;-59
2022/03/11 03:39:24;;;;;;;15.60;10.03;;;-1.60;75.30;;;-2.13;55.29;95672.75;4975835;28;20452;-56
2022/03/11 03:41:52;;;;;;;23.20;10.07;;;-1.60;76.00;;;-2.21;54.75;95670.41;4979894;28;20975;-60
2022/03/11 03:44:19;;;;;;;16.60;10.30;;;-1.70;75.80;;;-2.27;54.82;95673.97;4982228;28;20479;-57
2022/03/11 03:46:46;;;;;;;21.53;10.40;;;-1.80;75.60;;;-2.26;54.09;95673.09;4986161;28;20459;-60
2022/03/11 03:49:14;;;;;;;20.07;10.07;;;-1.80;75.50;;;-2.26;54.52;95674.81;4977905;28;20507;-60
2022/03/11 03:51:42;;;;;;;20.07;9.83;;;-1.80;76.00;;;-2.27;55.20;95676.56;4975421;28;20451;-59
2022/03/11 03:54:10;;;;;;;15.90;10.40;;;-1.80;76.10;;;-2.27;55.29;95670.56;4982536;28;20474;-58
2022/03/11 03:56:38;;;;;;;23.97;11.30;;;-1.80;76.00;;;-2.28;54.37;95674.84;4986257;28;20475;-59
2022/03/11 03:59:05;;;;;;;19.43;11.57;;;-1.80;75.80;;;-2.29;54.70;95680.91;4978034;28;20494;-56
2022/03/11 04:01:34;;;;;;;22.67;12.33;;;-1.80;76.10;;;-2.32;54.59;95683.56;4975922;28;20506;-57
2022/03/11 04:04:02;;;;;;;17.23;11.30;;;-1.80;76.30;;;-2.38;54.85;95678.59;4976069;28;20559;-56
2022/03/11 04:06:30;;;;;;;21.37;11.33;;;-1.80;76.10;;;-2.38;54.67;95683.75;4982524;28;20470;-56
2022/03/11 04:08:59;;;;;;;28.30;12.23;;;-1.80;76.40;;;-2.41;54.80;95689.81;4987295;28;20479;-60
2022/03/11 04:11:27;;;;;;;25.80;12.03;;;-1.90;76.20;;;-2.44;55.33;95687.31;4973419;28;20486;-59
2022/03/11 04:13:54;;;;;;;21.97;11.27;;;-1.90;76.60;;;-2.46;55.67;95691.66;4980256;28;20820;-58
2022/03/11 04:16:21;;;;;;;20.20;11.10;;;-2.00;76.50;;;-2.48;54.99;95697.75;4980661;28;20446;-55
2022/03/11 04:18:49;;;;;;;27.20;13.13;;;-2.00;76.80;;;-2.52;55.19;95695.25;4979641;28;20569;-55
2022/03/11 04:21:16;;;;;;;25.23;11.67;;;-2.00;76.50;;;-2.55;55.43;95710.78;4974343;28;20581;-57
2022/03/11 04:23:44;;;;;;;27.53;12.27;;;-2.00;76.50;;;-2.56;55.48;95706.50;4974627;28;20843;-62
2022/03/11 04:26:13;;;;;;;16.13;11.00;;;-2.00;76.70;;;-2.59;54.99;95711.72;4980523;28;20455;-56
2022/03/11 04:28:40;;;;;;;20.03;11.20;;;-2.10;76.50;;;-2.62;54.93;95711.81;4978098;28;20467;-55
2022/03/11 04:31:08;;;;;;;21.40;10.90;;;-2.10;76.70;;;-2.64;55.17;95703.28;4977903;28;20455;-57
2022/03/11 04:33:38;;;;;;;16.90;10.80;;;-2.10;76.70;;;-2.66;55.67;95705.06;4977401;28;20582;-57
2022/03/11 04:36:07;;;;;;;19.57;11.70;;;-2.10;76.60;;;-2.66;55.91;95707.66;4987497;28;20472;-57
2022/03/11 04:38:34;;;;;;;23.37;11.27;;;-2.10;77.00;;;-2.68;55.86;95706.84;4981010;28;20885;-59
2022/03/11 04:41:02;;;;;;;19.90;11.57;;;-2.20;77.10;;;-2.70;55.63;95706.03;4967674;28;20474;-57
2022/03/11 04:43:31;;;;;;;24.60;11.03;;;-2.20;77.10;;;-2.71;54.94;95701.78;4970964;28;20482;-56
2022/03/11 04:45:58;;;;;;;20.37;10.73;;;-2.20;77.20;;;-2.72;55.71;95710.38;4971134;28;20456;-57
2022/03/11 04:48:25;;;;;;;16.60;10.90;;;-2.20;77.10;;;-2.72;55.67;95712.94;4975419;28;20466;-57
2022/03/11 04:50:54;;;;;;;16.07;11.13;;;-2.20;77.10;;;-2.70;56.22;95708.59;4977582;28;20490;-58
2022/03/11 04:53:21;;;;;;;20.80;12.13;;;-2.20;77.30;;;-2.69;55.96;95709.47;4971292;28;20470;-58
2022/03/11 04:55:49;;;;;;;21.67;11.70;;;-2.20;77.10;;;-2.70;55.35;95713.75;4974152;28;20463;-61
2022/03/11 04:58:16;;;;;;;19.23;10.07;;;-2.20;77.20;;;-2.69;55.43;95715.44;4975239;28;21016;-57
2022/03/11 05:00:45;;;;;;;19.37;11.30;;;-2.20;77.10;;;-2.71;55.94;95712.06;4978141;28;20459;-57
2022/03/11 05:03:12;;;;;;;20.70;11.30;;;-2.20;77.10;;;-2.69;55.99;95714.63;4979262;28;20866;-55
2022/03/11 05:05:39;;;;;;;19.00;11.87;;;-2.20;77.20;;;-2.68;55.64;95722.31;4978495;28;20947;-57
2022/03/11 05:08:07;;;;;;;26.60;12.30;;;-2.20;77.60;;;-2.66;55.13;95729.97;4975958;28;20486;-55
2022/03/11 05:10:34;;;;;;;24.23;10.87;;;-2.20;77.20;;;-2.64;55.14;95721.31;4977981;28;20855;-56
2022/03/11 05:13:02;;;;;;;19.20;10.17;;;-2.20;77.20;;;-2.61;56.07;95726.38;4976796;28;20600;-58
2022/03/11 05:15:29;;;;;;;26.33;11.70;;;-2.10;77.90;;;-2.58;56.33;95723.72;4973025;28;20447;-57
2022/03/11 05:17:58;;;;;;;18.33;11.50;;;-2.10;77.90;;;-2.53;55.22;95734.75;4975276;28;20505;-56
2022/03/11 05:20:25;;;;;;;31.43;12.90;;;-2.10;77.90;;;-2.48;55.24;95729.47;4973834;28;20444;-57
2022/03/11 05:22:52;;;;;;;22.30;12.03;;;-2.00;77.30;;;-2.41;56.57;95732.75;4975283;28;20483;-56
2022/03/11 05:25:20;;;;;;;22.73;11.97;;;-2.00;78.30;;;-2.34;56.63;95736.84;4974821;28;20466;-56
2022/03/11 05:27:47;;;;;;;20.60;12.10;;;-1.90;78.20;;;-2.29;55.68;95740.16;4977913;28;20467;-59
2022/03/11 05:30:14;;;;;;;32.07;12.13;;;-1.80;77.60;;;-2.26;55.86;95740.09;4974267;28;20462;-60
2022/03/11 05:32:43;;;;;;;24.77;10.70;;;-1.80;77.60;;;-2.22;55.74;95746.81;4973626;28;21054;-60
2022/03/11 05:35:12;;;;;;;23.13;10.90;;;-1.70;76.90;;;-2.19;55.04;95749.31;4974726;28;20463;-58
2022/03/11 05:37:39;;;;;;;16.97;11.20;;;-1.70;77.60;;;-2.14;55.67;95748.38;4973446;28;21019;-60
2022/03/11 05:40:09;;;;;;;15.20;11.30;;;-1.60;77.50;;;-2.12;55.64;95752.59;4973247;28;20999;-57
2022/03/11 05:42:36;;;;;;;20.37;11.43;;;-1.70;77.60;;;-2.12;54.41;95751.75;4975254;28;20467;-61
2022/03/11 05:45:04;;;;;;;22.27;10.83;;;-1.60;77.10;;;-2.13;55.09;95750.91;4972596;28;20455;-60
2022/03/11 05:47:31;;;;;;;23.40;11.70;;;-1.60;77.50;;;-2.11;55.73;95758.59;4974636;28;21016;-56
2022/03/11 05:49:59;;;;;;;18.07;11.17;;;-1.60;77.40;;;-2.11;55.62;95754.28;4980281;28;20477;-61
2022/03/11 05:52:27;;;;;;;19.73;11.93;;;-1.60;77.40;;;-2.09;55.23;95751.66;4983103;28;20475;-59
2022/03/11 05:54:55;;;;;;;25.33;10.90;;;-1.60;77.00;;;-2.07;54.40;95755.06;4973805;28;20964;-60
2022/03/11 05:57:22;;;;;;;38.23;12.80;;;-1.60;76.80;;;-2.03;55.61;95759.22;4975459;28;20493;-56
2022/03/11 05:59:49;;;;;;;22.07;10.50;;;-1.60;77.00;;;-1.97;55.30;95753.91;4980418;28;20461;-63
2022/03/11 06:02:17;;;;;;;16.63;9.50;;;-1.50;76.90;;;-1.90;55.24;95758.00;4978218;28;20562;-60
2022/03/11 06:04:44;;;;;;;19.97;11.17;;;-1.50;77.10;;;-1.82;54.38;95761.22;4974063;28;20478;-57
2022/03/11 06:07:11;;;;;;;17.20;10.17;;;-1.40;76.60;;;-1.74;54.48;95766.16;4973505;28;20448;-56
2022/03/11 06:09:40;;;;;;;24.50;11.53;;;-1.30;76.50;;;-1.64;54.62;95766.75;4976104;28;20545;-60
2022/03/11 06:12:09;;;;;;;23.23;10.90;;;-1.20;76.10;;;-1.52;54.41;95762.97;4975971;28;20482;-59
2022/03/11 06:14:36;;;;;;;17.77;11.77;;;-1.10;75.90;;;-1.40;54.23;95765.19;4980243;28;20470;-60
2022/03/11 06:17:04;;;;;;;23.67;11.73;;;-1.00;75.80;;;-1.26;54.26;95775.09;4972002;28;20458;-60
2022/03/11 06:19:31;;;;;;;20.77;10.90;;;-0.90;75.40;;;-1.15;53.61;95770.44;4975121;28;20519;-56
2022/03/11 06:21:59;;;;;;;16.30;9.83;;;-0.80;75.10;;;-1.04;53.80;95772.69;4980988;28;20454;-60
2022/03/11 06:24:27;;;;;;;18.33;10.33;;;-0.60;74.90;;;-0.91;53.06;95775.75;4985296;28;20906;-56
2022/03/11 06:26:58;;;;;;;23.37;10.93;;;-0.50;74.20;;;-0.75;52.96;95774.34;4971724;28;20448;-56
2022/03/11 06:29:25;;;;;;;21.53;11.93;;;-0.40;74.10;;;-0.60;52.87;95770.44;4972757;28;20444;-58
2022/03/11 06:31:53;;;;;;;34.17;20.20;;;-0.20;73.50;;;-0.47;52.33;95773.47;4977584;28;20473;-57
2022/03/11 06:34:20;;;;;;;27.90;14.60;;;-0.10;73.10;;;-0.34;52.32;95776.50;4981972;28;20471;-55
2022/03/11 06:36:47;;;;;;;29.10;10.63;;;0.00;72.50;;;-0.22;51.75;95785.56;4974962;28;20455;-58
2022/03/11 06:39:15;;;;;;;14.53;10.10;;;0.20;72.10;;;-0.04;51.06;95782.34;4974498;28;20510;-60
2022/03/11 06:41:42;;;;;;;15.43;10.77;;;0.30;71.40;;;0.18;50.70;95789.38;4980775;28;20454;-59
2022/03/11 06:44:11;;;;;;;18.57;10.00;;;0.50;70.60;;;0.50;50.91;95785.63;4982494;28;20625;-57
2022/03/11 06:46:38;;;;;;;25.97;10.00;;;0.70;70.70;;;0.84;49.52;95791.31;4977551;28;20459;-60
2022/03/11 06:49:06;;;;;;;15.07;9.63;;;1.00;68.70;;;1.18;49.40;95788.25;4971029;28;20479;-57
2022/03/11 06:51:33;;;;;;;20.07;9.97;;;1.40;67.90;;;1.54;48.24;95785.09;4975322;28;20504;-60
2022/03/11 06:54:00;;;;;;;13.20;8.20;;;1.70;66.70;;;1.86;47.98;95792.44;4982602;28;20537;-57
2022/03/11 06:56:28;;;;;;;10.07;6.77;;;2.00;65.60;;;2.06;46.10;95795.06;4981755;28;20467;-57
2022/03/11 06:58:55;;;;;;;17.10;8.63;;;2.30;61.60;;;2.13;47.12;95793.88;4975746;28;20502;-59
2022/03/11 07:01:24;;;;;;;15.73;9.57;;;2.40;61.20;;;2.18;46.38;95791.06;4979374;28;20463;-56
2022/03/11 07:03:52;;;;;;;22.40;11.47;;;2.50;60.90;;;2.28;45.21;95792.38;4984108;28;20557;-57
2022/03/11 07:06:19;;;;;;;16.70;10.20;;;2.60;60.00;;;2.38;45.83;95792.81;4986079;28;20450;-57
2022/03/11 07:08:46;;;;;;;7.27;5.30;;;2.70;59.70;;;2.39;44.37;95794.50;4974769;28;20526;-60
2022/03/11 07:11:14;;;;;;;9.93;6.43;;;2.70;57.00;;;2.49;45.30;95794.94;4975927;28;20498;-57
2022/03/11 07:13:41;;;;;;;10.40;6.93;;;2.80;57.50;;;2.87;43.97;95792.38;4981293;28;20489;-59
2022/03/11 07:16:09;;;;;;;5.93;5.30;;;3.10;57.00;;;3.44;44.67;95792.31;4980580;28;20458;-56
2022/03/11 07:18:37;;;;;;;6.43;5.47;;;3.60;58.10;;;4.12;44.13;95781.16;4975909;28;20930;-60
2022/03/11 07:21:05;;;;;;;5.70;5.13;;;4.10;57.90;;;4.66;42.57;95794.88;4974572;28;20450;-60
2022/03/11 07:23:32;;;;;;;7.20;5.60;;;4.60;55.60;;;5.15;43.34;95791.38;4982645;28;20471;-59
2022/03/11 07:25:59;;;;;;;7.97;6.23;;;5.10;56.10;;;5.63;41.99;95788.75;4985293;28;21027;-60
2022/03/11 07:28:27;;;;;;;14.83;6.30;;;5.60;55.00;;;6.07;41.29;95788.00;4979134;28;20998;-57
2022/03/11 07:30:55;;;;;;;9.67;6.63;;;6.10;53.00;;;6.62;41.09;95786.47;4973954;28;20498;-59
2022/03/11 07:33:22;;;;;;;9.20;6.97;;;6.60;53.10;;;7.28;40.79;95780.69;4980795;28;20482;-56
2022/03/11 07:35:51;;;;;;;10.60;7.10;;;7.10;52.50;;;7.99;39.76;95776.16;4985155;28;20474;-56
2022/03/11 07:38:18;;;;;;;14.70;7.23;;;7.80;51.40;;;8.21;37.96;95778.16;4982787;28;20498;-56
2022/03/11 07:40:46;;;;;;;8.47;7.07;;;8.10;48.90;;;7.75;36.90;95782.06;4975479;28;20466;-59
2022/03/11 07:43:13;;;;;;;7.00;6.30;;;8.00;46.50;;;7.71;38.70;95778.81;4979971;28;20478;-59
2022/03/11 07:45:41;;;;;;;9.57;6.60;;;7.90;47.90;;;7.79;38.42;95775.69;4983897;28;20539;-60
2022/03/11 07:48:08;;;;;;;7.13;6.43;;;8.00;47.90;;;8.23;38.22;95774.50;4975831;28;20553;-58
2022/03/11 07:50:35;;;;;;;9.00;7.07;;;8.40;47.80;;;8.74;37.12;95770.25;4974274;28;20570;-60
2022/03/11 07:53:04;;;;;;;11.40;7.00;;;8.80;46.20;;;9.03;36.27;95770.00;4978913;28;20474;-61
2022/03/11 07:55:32;;;;;;;10.30;6.63;;;9.30;44.90;;;9.02;35.93;95782.28;4979872;28;20563;-58
2022/03/11 07:57:59;;;;;;;12.83;6.83;;;9.30;43.80;;;8.71;35.99;95773.09;4987162;28;20672;-60
2022/03/11 08:00:27;;;;;;;10.93;6.37;;;9.20;43.80;;;8.25;35.48;95770.00;4975283;28;20917;-56
2022/03/11 08:02:54;;;;;;;9.93;7.73;;;8.80;43.40;;;7.59;35.66;95771.75;4976934;28;20470;-56
2022/03/11 08:05:22;;;;;;;12.50;9.10;;;8.20;42.90;;;7.02;36.46;95785.81;4978986;28;20581;-60
2022/03/11 08:07:50;;;;;;;11.80;7.97;;;7.60;43.60;;;6.63;37.12;95776.84;4985303;28;20481;-57
2022/03/11 08:10:18;;;;;;;12.20;8.50;;;7.10;44.40;;;6.38;36.82;95780.09;4980308;28;20459;-57
2022/03/11 08:12:46;;;;;;;13.23;8.93;;;6.80;44.80;;;6.04;37.01;95782.97;4977204;28;20490;-59
2022/03/11 08:15:13;;;;;;;7.80;7.00;;;6.50;44.60;;;5.63;36.89;95777.47;4980651;28;20486;-61
2022/03/11 08:17:41;;;;;;;8.23;6.90;;;6.10;44.30;;;5.28;37.87;95780.28;4984563;28;20478;-60
2022/03/11 08:20:09;;;;;;;9.30;7.97;;;5.70;45.40;;;5.16;38.06;95774.00;4975792;28;20498;-54
2022/03/11 08:22:37;;;;;;;13.07;8.80;;;5.50;45.60;;;5.31;38.18;95774.88;4976620;28;20478;-56
2022/03/11 08:25:05;;;;;;;11.20;9.43;;;5.60;46.20;;;5.77;37.74;95776.69;4977579;28;20466;-59
2022/03/11 08:27:34;;;;;;;15.40;9.63;;;6.00;46.60;;;6.08;37.91;95768.75;4978690;28;20463;-62
2022/03/11 08:30:02;;;;;;;12.90;8.97;;;6.30;46.80;;;6.36;37.63;95768.91;4983289;28;20467;-55
2022/03/11 08:32:29;;;;;;;10.47;8.13;;;6.50;46.20;;;6.68;36.65;95771.34;4971555;28;20467;-57
2022/03/11 08:34:58;;;;;;;8.97;7.63;;;6.90;45.30;;;7.15;36.43;95775.41;4976902;28;20958;-59
2022/03/11 08:37:25;;;;;;;9.90;6.90;;;7.30;45.10;;;7.44;36.49;95765.72;4979588;28;20470;-60
2022/03/11 08:39:53;;;;;;;11.07;8.30;;;7.50;45.30;;;7.66;35.82;95766.94;4984309;28;21057;-60
2022/03/11 08:42:20;;;;;;;15.10;8.23;;;7.80;44.10;;;8.15;35.58;95763.72;4975321;28;20482;-60
2022/03/11 08:44:48;;;;;;;8.87;8.07;;;8.20;44.60;;;8.85;35.40;95757.22;4978929;28;20452;-57
2022/03/11 08:47:16;;;;;;;13.27;8.33;;;8.80;44.20;;;9.56;34.31;95756.59;4981709;28;20458;-55
2022/03/11 08:49:43;;;;;;;11.17;8.47;;;9.50;43.10;;;10.22;33.73;95754.34;4981960;28;20485;-60
2022/03/11 08:52:11;;;;;;;9.20;7.93;;;10.10;41.90;;;10.74;32.80;95757.47;4980020;28;20968;-59
2022/03/11 08:54:38;;;;;;;16.17;8.47;;;10.70;39.90;;;10.89;32.45;95744.88;4975342;28;20615;-57
2022/03/11 08:57:05;;;;;;;11.20;7.80;;;11.00;39.50;;;11.19;31.67;95746.06;4980613;28;20466;-60
2022/03/11 08:59:32;;;;;;;8.43;6.77;;;11.20;38.80;;;11.27;31.86;95755.03;4981838;28;20521;-55
2022/03/11 09:02:02;;;;;;;7.93;7.00;;;11.30;39.30;;;11.35;31.07;95758.84;4979094;28;20477;-56
2022/03/11 09:04:30;;;;;;;10.20;6.40;;;11.40;37.80;;;11.24;30.91;95754.44;4971698;28;20463;-58
2022/03/11 09:06:57;;;;;;;9.47;6.40;;;11.30;37.20;;;10.82;30.56;95756.88;4980193;28;20458;-60
2022/03/11 09:09:24;;;;;;;9.03;7.07;;;11.00;36.20;;;10.55;30.83;95760.66;4984308;28;20454;-57
2022/03/11 09:11:52;;;;;;;22.43;6.63;;;10.70;36.90;;;10.20;30.64;95751.84;4981541;28;20534;-60
2022/03/11 09:14:19;;;;;;;12.13;7.70;;;10.40;35.70;;;9.83;31.49;95759.00;4976225;28;20483;-57
2022/03/11 09:16:46;;;;;;;15.77;8.30;;;10.10;37.10;;;9.49;31.88;95761.47;4976411;28;20459;-56
2022/03/11 09:19:15;;;;;;;14.83;8.03;;;9.80;38.40;;;9.10;32.23;95753.72;4978807;28;20513;-61
2022/03/11 09:21:42;;;;;;;10.83;6.87;;;9.40;38.40;;;8.74;29.81;95759.78;4983661;28;20450;-60
2022/03/11 09:24:10;;;;;;;7.47;6.57;;;9.00;36.10;;;8.25;31.27;95763.91;4973693;28;20553;-57
2022/03/11 09:26:37;;;;;;;9.60;7.70;;;8.60;37.00;;;7.80;33.26;95763.44;4977151;28;20486;-57
2022/03/11 09:29:04;;;;;;;13.57;7.30;;;8.20;38.70;;;7.44;33.18;95760.47;4979537;28;21004;-57
2022/03/11 09:31:32;;;;;;;9.90;8.70;;;7.80;39.10;;;7.17;33.67;95760.44;4982216;28;20458;-56
2022/03/11 09:33:59;;;;;;;20.03;8.20;;;7.60;40.00;;;7.06;33.77;95763.75;4981019;28;20472;-58
2022/03/11 09:36:27;;;;;;;12.80;8.60;;;7.30;40.70;;;7.02;33.72;95764.88;4976546;28;20467;-57
2022/03/11 09:38:55;;;;;;;11.90;7.70;;;7.20;40.60;;;6.97;34.92;95756.47;4977754;28;20493;-56
2022/03/11 09:41:22;;;;;;;13.93;8.63;;;7.20;41.40;;;6.92;33.98;95755.94;4979883;28;20452;-61
2022/03/11 09:43:49;;;;;;;17.67;7.70;;;7.20;40.80;;;6.86;34.10;95759.75;4979425;28;20479;-61
2022/03/11 09:46:17;;;;;;;10.43;8.53;;;7.10;40.70;;;6.82;34.20;95759.09;4973237;28;20550;-56
2022/03/11 09:48:44;;;;;;;10.70;7.97;;;7.00;40.80;;;6.84;34.35;95759.00;4977562;28;20483;-56
2022/03/11 09:51:11;;;;;;;12.53;8.70;;;7.00;41.90;;;6.93;34.54;95765.47;4980453;28;20456;-56
2022/03/11 09:53:42;;;;;;;9.70;8.50;;;7.10;42.20;;;6.95;34.06;95753.13;4980094;28;20479;-57
2022/03/11 09:56:09;;;;;;;9.43;7.13;;;7.10;41.80;;;6.92;33.98;95748.06;4971016;28;20524;-60
2022/03/11 09:58:36;;;;;;;17.30;9.33;;;7.10;41.70;;;6.84;35.00;95758.19;4977508;28;20482;-57
2022/03/11 10:01:05;;;;;;;12.80;9.17;;;7.00;42.30;;;6.72;34.59;95750.16;4980612;28;20463;-57
2022/03/11 10:03:33;;;;;;;9.40;7.90;;;6.90;41.90;;;6.59;34.19;95749.22;4983990;28;20558;-56
2022/03/11 10:06:00;;;;;;;10.60;8.67;;;6.80;41.50;;;6.47;35.31;95753.41;4971988;28;21005;-56
2022/03/11 10:08:32;;;;;;;9.37;7.83;;;6.70;41.90;;;6.40;35.43;95746.91;4977402;28;20482;-56
2022/03/11 10:11:21;;;;;;;11.37;8.03;;;6.60;42.10;;;6.39;35.07;95747.81;4980995;28;20498;-57
2022/03/11 10:13:48;;;;;;;17.23;9.57;;;6.60;42.70;;;6.39;35.20;95743.44;4980315;28;20543;-59